Springfield, Michigan
Current Conditions -  °F | °C
As of 8:53 AM on Thursday 30 Oct 2014 (Local Time) from KBTL Reporting Station
Overcast Overcast  
Wind Chill: 40°   Ceiling: 3800
Heat Index: 43°   Visibility: 10mi
Dew Point: 36°   Wind: 5mph
Humidity: 76%   Direction: 200°SSW
Pressure: 30.13"   Gusts: NA
Location:  42.2966°N, 85.2371°W
Report Text: KBTL 301253Z 20004KT 10SM OVC038 06/02 A3013 RMK AO2 SLP208 T00610022
Loading
Personal Weather Stations






























Interactive Weather Map New forecast layout! Learn more

10-Day Weather Forecast

Advertisements
Track Severe Weather on mobile